sensor_id;sensor_type;location;lat;lon;timestamp;pressure;altitude;pressure_sealevel;temperature;humidity
49044;BME280;34860;48.066;14.124;2023-09-12T00:00:47;96375.56;;;21.13;61.17
49044;BME280;34860;48.066;14.124;2023-09-12T00:03:37;96372.97;;;21.09;61.18
49044;BME280;34860;48.066;14.124;2023-09-12T00:06:25;96380.97;;;21.05;61.30
49044;BME280;34860;48.066;14.124;2023-09-12T00:09:13;96374.28;;;21.02;61.19
49044;BME280;34860;48.066;14.124;2023-09-12T00:12:01;96383.03;;;20.99;61.31
49044;BME280;34860;48.066;14.124;2023-09-12T00:14:49;96380.47;;;20.95;61.36
49044;BME280;34860;48.066;14.124;2023-09-12T00:17:37;96386.63;;;20.94;61.40
49044;BME280;34860;48.066;14.124;2023-09-12T00:20:27;96386.34;;;20.92;61.35
49044;BME280;34860;48.066;14.124;2023-09-12T00:23:15;96385.84;;;20.88;61.37
49044;BME280;34860;48.066;14.124;2023-09-12T00:26:04;96379.16;;;20.85;61.47
49044;BME280;34860;48.066;14.124;2023-09-12T00:28:54;96390.22;;;20.83;61.47
49044;BME280;34860;48.066;14.124;2023-09-12T00:31:42;96389.97;;;20.81;61.49
49044;BME280;34860;48.066;14.124;2023-09-12T00:34:30;96400.22;;;20.78;61.53
49044;BME280;34860;48.066;14.124;2023-09-12T00:37:19;96385.06;;;20.76;61.52
49044;BME280;34860;48.066;14.124;2023-09-12T00:40:08;96386.88;;;20.73;61.62
49044;BME280;34860;48.066;14.124;2023-09-12T00:42:56;96399.44;;;20.72;61.42
49044;BME280;34860;48.066;14.124;2023-09-12T00:45:44;96380.44;;;20.67;61.53
49044;BME280;34860;48.066;14.124;2023-09-12T00:48:32;96385.84;;;20.65;61.55
49044;BME280;34860;48.066;14.124;2023-09-12T00:51:22;96389.66;;;20.62;61.70
49044;BME280;34860;48.066;14.124;2023-09-12T00:54:13;96385.03;;;20.59;61.70
49044;BME280;34860;48.066;14.124;2023-09-12T00:57:01;96382.72;;;20.57;61.74
49044;BME280;34860;48.066;14.124;2023-09-12T00:59:49;96381.69;;;20.55;61.73
49044;BME280;34860;48.066;14.124;2023-09-12T01:02:39;96384.50;;;20.55;61.84
49044;BME280;34860;48.066;14.124;2023-09-12T01:05:28;96381.94;;;20.51;61.84
49044;BME280;34860;48.066;14.124;2023-09-12T01:08:16;96387.34;;;20.49;61.81
49044;BME280;34860;48.066;14.124;2023-09-12T01:11:06;96386.03;;;20.50;61.83
49044;BME280;34860;48.066;14.124;2023-09-12T01:13:54;96386.31;;;20.46;61.76
49044;BME280;34860;48.066;14.124;2023-09-12T01:16:42;96386.81;;;20.45;61.88
49044;BME280;34860;48.066;14.124;2023-09-12T01:19:30;96378.84;;;20.43;61.86
49044;BME280;34860;48.066;14.124;2023-09-12T01:22:27;96380.66;;;20.41;61.97
49044;BME280;34860;48.066;14.124;2023-09-12T01:25:38;96381.16;;;20.39;61.99
49044;BME280;34860;48.066;14.124;2023-09-12T01:28:34;96378.06;;;20.37;61.95
49044;BME280;34860;48.066;14.124;2023-09-12T01:31:23;96370.09;;;20.36;61.96
49044;BME280;34860;48.066;14.124;2023-09-12T01:34:12;96378.31;;;20.33;62.02
49044;BME280;34860;48.066;14.124;2023-09-12T01:37:01;96381.66;;;20.32;62.05
49044;BME280;34860;48.066;14.124;2023-09-12T01:39:49;96372.16;;;20.29;61.97
49044;BME280;34860;48.066;14.124;2023-09-12T01:42:42;96375.50;;;20.28;62.14
49044;BME280;34860;48.066;14.124;2023-09-12T01:45:35;96380.09;;;20.25;62.05
49044;BME280;34860;48.066;14.124;2023-09-12T01:48:26;96381.88;;;20.23;62.06
49044;BME280;34860;48.066;14.124;2023-09-12T01:51:20;96384.44;;;20.21;62.05
49044;BME280;34860;48.066;14.124;2023-09-12T01:54:09;96382.91;;;20.20;62.01
49044;BME280;34860;48.066;14.124;2023-09-12T01:56:58;96389.06;;;20.18;62.09
49044;BME280;34860;48.066;14.124;2023-09-12T01:59:46;96380.34;;;20.16;62.13
49044;BME280;34860;48.066;14.124;2023-09-12T02:02:36;96384.44;;;20.15;62.18
49044;BME280;34860;48.066;14.124;2023-09-12T02:05:24;96386.50;;;20.14;62.11
49044;BME280;34860;48.066;14.124;2023-09-12T02:08:12;96390.31;;;20.11;62.36
49044;BME280;34860;48.066;14.124;2023-09-12T02:11:00;96395.19;;;20.11;62.14
49044;BME280;34860;48.066;14.124;2023-09-12T02:13:49;96390.06;;;20.09;62.18
49044;BME280;34860;48.066;14.124;2023-09-12T02:16:38;96391.63;;;20.10;62.23
49044;BME280;34860;48.066;14.124;2023-09-12T02:19:28;96384.94;;;20.08;62.23
49044;BME280;34860;48.066;14.124;2023-09-12T02:22:16;96388.25;;;20.06;62.32
49044;BME280;34860;48.066;14.124;2023-09-12T02:25:06;96387.22;;;20.04;62.35
49044;BME280;34860;48.066;14.124;2023-09-12T02:27:55;96389.53;;;20.00;62.45
49044;BME280;34860;48.066;14.124;2023-09-12T02:30:43;96396.19;;;19.96;62.50
49044;BME280;34860;48.066;14.124;2023-09-12T02:33:31;96382.34;;;19.93;62.63
49044;BME280;34860;48.066;14.124;2023-09-12T02:36:20;96382.03;;;19.91;62.73
49044;BME280;34860;48.066;14.124;2023-09-12T02:39:08;96382.28;;;19.87;62.72
49044;BME280;34860;48.066;14.124;2023-09-12T02:41:56;96381.25;;;19.85;62.78
49044;BME280;34860;48.066;14.124;2023-09-12T02:44:45;96373.03;;;19.81;62.80
49044;BME280;34860;48.066;14.124;2023-09-12T02:47:34;96382.00;;;19.80;62.87
49044;BME280;34860;48.066;14.124;2023-09-12T02:50:22;96385.06;;;19.76;62.92
49044;BME280;34860;48.066;14.124;2023-09-12T02:53:11;96375.53;;;19.73;63.00
49044;BME280;34860;48.066;14.124;2023-09-12T02:55:59;96378.59;;;19.70;62.94
49044;BME280;34860;48.066;14.124;2023-09-12T02:58:48;96375.53;;;19.68;63.03
49044;BME280;34860;48.066;14.124;2023-09-12T03:01:36;96374.22;;;19.69;63.08
49044;BME280;34860;48.066;14.124;2023-09-12T03:04:25;96365.25;;;19.65;63.08
49044;BME280;34860;48.066;14.124;2023-09-12T03:07:13;96371.41;;;19.63;63.05
49044;BME280;34860;48.066;14.124;2023-09-12T03:10:03;96377.03;;;19.63;63.05
49044;BME280;34860;48.066;14.124;2023-09-12T03:12:52;96370.09;;;19.58;63.08
49044;BME280;34860;48.066;14.124;2023-09-12T03:15:40;96368.53;;;19.57;63.06
49044;BME280;34860;48.066;14.124;2023-09-12T03:18:28;96376.75;;;19.55;63.20
49044;BME280;34860;48.066;14.124;2023-09-12T03:21:16;96378.50;;;19.53;63.27
49044;BME280;34860;48.066;14.124;2023-09-12T03:24:04;96364.94;;;19.51;63.30
49044;BME280;34860;48.066;14.124;2023-09-12T03:26:55;96363.16;;;19.48;63.37
49044;BME280;34860;48.066;14.124;2023-09-12T03:29:46;96360.81;;;19.47;63.42
49044;BME280;34860;48.066;14.124;2023-09-12T03:32:34;96364.66;;;19.44;63.38
49044;BME280;34860;48.066;14.124;2023-09-12T03:35:23;96367.97;;;19.42;63.51
49044;BME280;34860;48.066;14.124;2023-09-12T03:38:11;96367.69;;;19.40;63.64
49044;BME280;34860;48.066;14.124;2023-09-12T03:40:59;96363.84;;;19.37;63.50
49044;BME280;34860;48.066;14.124;2023-09-12T03:43:49;96363.59;;;19.35;63.68
49044;BME280;34860;48.066;14.124;2023-09-12T03:46:39;96371.25;;;19.35;63.70
49044;BME280;34860;48.066;14.124;2023-09-12T03:49:27;96368.94;;;19.33;63.68
49044;BME280;34860;48.066;14.124;2023-09-12T03:52:16;96372.00;;;19.30;63.81
49044;BME280;34860;48.066;14.124;2023-09-12T03:55:04;96358.41;;;19.28;63.70
49044;BME280;34860;48.066;14.124;2023-09-12T03:57:53;96375.31;;;19.28;63.78
49044;BME280;34860;48.066;14.124;2023-09-12T04:00:43;96373.00;;;19.27;63.67
49044;BME280;34860;48.066;14.124;2023-09-12T04:03:32;96373.50;;;19.25;63.86
49044;BME280;34860;48.066;14.124;2023-09-12T04:06:20;96380.69;;;19.26;63.73
49044;BME280;34860;48.066;14.124;2023-09-12T04:09:08;96382.72;;;19.26;63.85
49044;BME280;34860;48.066;14.124;2023-09-12T04:11:57;96381.97;;;19.25;63.80
49044;BME280;34860;48.066;14.124;2023-09-12T04:14:45;96394.00;;;19.26;63.67
49044;BME280;34860;48.066;14.124;2023-09-12T04:17:34;96386.81;;;19.24;63.72
49044;BME280;34860;48.066;14.124;2023-09-12T04:20:23;96388.84;;;19.24;63.78
49044;BME280;34860;48.066;14.124;2023-09-12T04:23:11;96394.00;;;19.26;63.84
49044;BME280;34860;48.066;14.124;2023-09-12T04:25:59;96392.47;;;19.24;63.82
49044;BME280;34860;48.066;14.124;2023-09-12T04:28:50;96390.91;;;19.23;63.78
49044;BME280;34860;48.066;14.124;2023-09-12T04:31:40;96399.88;;;19.22;63.83
49044;BME280;34860;48.066;14.124;2023-09-12T04:34:31;96395.00;;;19.22;63.87
49044;BME280;34860;48.066;14.124;2023-09-12T04:37:19;96396.28;;;19.21;63.97
49044;BME280;34860;48.066;14.124;2023-09-12T04:40:08;96389.34;;;19.22;63.83
49044;BME280;34860;48.066;14.124;2023-09-12T04:42:56;96399.88;;;19.22;63.74
49044;BME280;34860;48.066;14.124;2023-09-12T04:45:44;96395.22;;;19.19;63.86
49044;BME280;34860;48.066;14.124;2023-09-12T04:48:33;96391.16;;;19.20;63.97
49044;BME280;34860;48.066;14.124;2023-09-12T04:51:22;96393.19;;;19.19;63.86
49044;BME280;34860;48.066;14.124;2023-09-12T04:54:11;96400.09;;;19.18;64.02
49044;BME280;34860;48.066;14.124;2023-09-12T04:56:59;96394.47;;;19.18;64.00
49044;BME280;34860;48.066;14.124;2023-09-12T04:59:47;96392.16;;;19.17;63.94
49044;BME280;34860;48.066;14.124;2023-09-12T05:02:35;96395.72;;;19.17;63.93
49044;BME280;34860;48.066;14.124;2023-09-12T05:05:24;96401.38;;;19.17;63.92
49044;BME280;34860;48.066;14.124;2023-09-12T05:08:14;96397.78;;;19.17;64.03
49044;BME280;34860;48.066;14.124;2023-09-12T05:11:02;96403.69;;;19.19;64.04
49044;BME280;34860;48.066;14.124;2023-09-12T05:13:50;96409.31;;;19.19;63.84
49044;BME280;34860;48.066;14.124;2023-09-12T05:16:39;96410.09;;;19.19;64.01
49044;BME280;34860;48.066;14.124;2023-09-12T05:19:29;96409.31;;;19.19;63.82
49044;BME280;34860;48.066;14.124;2023-09-12T05:22:18;96408.06;;;19.20;63.95
49044;BME280;34860;48.066;14.124;2023-09-12T05:25:08;96409.06;;;19.22;64.04
49044;BME280;34860;48.066;14.124;2023-09-12T05:27:56;96403.94;;;19.21;64.02
49044;BME280;34860;48.066;14.124;2023-09-12T05:30:45;96406.25;;;19.22;63.87
49044;BME280;34860;48.066;14.124;2023-09-12T05:33:33;96411.13;;;19.22;64.12
49044;BME280;34860;48.066;14.124;2023-09-12T05:36:21;96414.22;;;19.24;64.14
49044;BME280;34860;48.066;14.124;2023-09-12T05:39:10;96413.72;;;19.26;63.91
49044;BME280;34860;48.066;14.124;2023-09-12T05:42:01;96404.75;;;19.27;64.11
49044;BME280;34860;48.066;14.124;2023-09-12T05:44:50;96406.31;;;19.28;64.09
49044;BME280;34860;48.066;14.124;2023-09-12T05:47:40;96414.25;;;19.30;64.04
49044;BME280;34860;48.066;14.124;2023-09-12T05:50:28;96418.91;;;19.33;64.07
49044;BME280;34860;48.066;14.124;2023-09-12T05:53:16;96425.59;;;19.35;63.98
49044;BME280;34860;48.066;14.124;2023-09-12T05:56:04;96416.88;;;19.39;63.90
49044;BME280;34860;48.066;14.124;2023-09-12T05:58:54;96417.41;;;19.43;63.90
49044;BME280;34860;48.066;14.124;2023-09-12T06:01:42;96427.69;;;19.46;64.00
49044;BME280;34860;48.066;14.124;2023-09-12T06:04:30;96420.78;;;19.47;63.87
49044;BME280;34860;48.066;14.124;2023-09-12T06:07:18;96411.81;;;19.49;64.02
49044;BME280;34860;48.066;14.124;2023-09-12T06:10:07;96416.94;;;19.50;64.06
49044;BME280;34860;48.066;14.124;2023-09-12T06:12:55;96417.47;;;19.54;64.11
49044;BME280;34860;48.066;14.124;2023-09-12T06:15:45;96414.16;;;19.56;64.09
49044;BME280;34860;48.066;14.124;2023-09-12T06:18:34;96425.22;;;19.59;63.96
49044;BME280;34860;48.066;14.124;2023-09-12T06:21:22;96428.28;;;19.62;64.02
49044;BME280;34860;48.066;14.124;2023-09-12T06:24:11;96417.56;;;19.66;64.06
49044;BME280;34860;48.066;14.124;2023-09-12T06:27:00;96422.16;;;19.69;63.87
49044;BME280;34860;48.066;14.124;2023-09-12T06:29:48;96415.81;;;19.74;63.99
49044;BME280;34860;48.066;14.124;2023-09-12T06:32:40;96421.22;;;19.77;64.09
49044;BME280;34860;48.066;14.124;2023-09-12T06:35:31;96423.81;;;19.81;63.99
49044;BME280;34860;48.066;14.124;2023-09-12T06:38:20;96416.66;;;19.86;64.11
49044;BME280;34860;48.066;14.124;2023-09-12T06:41:08;96433.31;;;19.89;64.01
49044;BME280;34860;48.066;14.124;2023-09-12T06:43:56;96428.97;;;19.94;64.07
49044;BME280;34860;48.066;14.124;2023-09-12T06:46:45;96427.97;;;19.97;63.99
49044;BME280;34860;48.066;14.124;2023-09-12T06:49:34;96424.91;;;20.01;63.99
49044;BME280;34860;48.066;14.124;2023-09-12T06:52:22;96435.47;;;20.06;63.98
49044;BME280;34860;48.066;14.124;2023-09-12T06:55:11;96434.69;;;20.11;64.04
49044;BME280;34860;48.066;14.124;2023-09-12T06:57:59;96432.38;;;20.15;64.04
49044;BME280;34860;48.066;14.124;2023-09-12T07:00:47;96435.75;;;20.19;64.04
49044;BME280;34860;48.066;14.124;2023-09-12T07:03:36;96434.22;;;20.24;63.94
49044;BME280;34860;48.066;14.124;2023-09-12T07:06:26;96431.94;;;20.28;64.07
49044;BME280;34860;48.066;14.124;2023-09-12T07:09:14;96439.38;;;20.31;63.86
49044;BME280;34860;48.066;14.124;2023-09-12T07:12:03;96442.22;;;20.37;64.02
49044;BME280;34860;48.066;14.124;2023-09-12T07:14:52;96447.09;;;20.42;63.86
49044;BME280;34860;48.066;14.124;2023-09-12T07:17:40;96449.44;;;20.49;63.92
49044;BME280;34860;48.066;14.124;2023-09-12T07:20:28;96443.53;;;20.53;63.84
49044;BME280;34860;48.066;14.124;2023-09-12T07:23:17;96437.63;;;20.56;63.80
49044;BME280;34860;48.066;14.124;2023-09-12T07:26:06;96437.38;;;20.60;63.90
49044;BME280;34860;48.066;14.124;2023-09-12T07:28:59;96446.41;;;20.64;63.87
49044;BME280;34860;48.066;14.124;2023-09-12T07:34:39;96439.25;;;20.74;63.70
49044;BME280;34860;48.066;14.124;2023-09-12T07:37:29;96435.38;;;20.77;63.89
49044;BME280;34860;48.066;14.124;2023-09-12T07:40:19;96439.78;;;20.84;63.77
49044;BME280;34860;48.066;14.124;2023-09-12T07:43:07;96449.53;;;20.89;63.58
49044;BME280;34860;48.066;14.124;2023-09-12T07:45:56;96456.47;;;20.93;63.71
49044;BME280;34860;48.066;14.124;2023-09-12T07:48:44;96456.97;;;20.97;63.69
49044;BME280;34860;48.066;14.124;2023-09-12T07:51:36;96456.50;;;21.04;63.71
49044;BME280;34860;48.066;14.124;2023-09-12T07:54:24;96454.16;;;21.09;63.81
49044;BME280;34860;48.066;14.124;2023-09-12T07:57:13;96443.63;;;21.15;63.61
49044;BME280;34860;48.066;14.124;2023-09-12T08:00:02;96451.84;;;21.18;63.49
49044;BME280;34860;48.066;14.124;2023-09-12T08:02:57;96454.69;;;21.24;63.44
49044;BME280;34860;48.066;14.124;2023-09-12T08:05:54;96451.59;;;21.28;63.57
49044;BME280;34860;48.066;14.124;2023-09-12T08:08:42;96463.16;;;21.35;63.34
49044;BME280;34860;48.066;14.124;2023-09-12T08:11:31;96460.81;;;21.39;63.61
49044;BME280;34860;48.066;14.124;2023-09-12T08:14:20;96452.59;;;21.47;63.49
49044;BME280;34860;48.066;14.124;2023-09-12T08:17:09;96452.88;;;21.55;63.38
49044;BME280;34860;48.066;14.124;2023-09-12T08:19:57;96452.34;;;21.62;63.28
49044;BME280;34860;48.066;14.124;2023-09-12T08:22:45;96452.56;;;21.70;63.14
49044;BME280;34860;48.066;14.124;2023-09-12T08:25:33;96452.06;;;21.77;63.07
49044;BME280;34860;48.066;14.124;2023-09-12T08:28:21;96452.56;;;21.81;63.13
49044;BME280;34860;48.066;14.124;2023-09-12T08:31:11;96449.72;;;21.87;63.13
49044;BME280;34860;48.066;14.124;2023-09-12T08:33:59;96453.81;;;21.91;63.21
49044;BME280;34860;48.066;14.124;2023-09-12T08:36:47;96456.63;;;21.97;63.27
49044;BME280;34860;48.066;14.124;2023-09-12T08:39:40;96458.69;;;22.02;63.16
49044;BME280;34860;48.066;14.124;2023-09-12T08:42:29;96454.00;;;22.10;63.03
49044;BME280;34860;48.066;14.124;2023-09-12T08:45:19;96455.00;;;22.19;62.99
49044;BME280;34860;48.066;14.124;2023-09-12T08:48:10;96450.84;;;22.25;63.04
49044;BME280;34860;48.066;14.124;2023-09-12T08:50:59;96440.31;;;22.31;62.67
49044;BME280;34860;48.066;14.124;2023-09-12T08:53:48;96451.09;;;22.39;62.63
49044;BME280;34860;48.066;14.124;2023-09-12T08:56:39;96447.97;;;22.42;62.43
49044;BME280;34860;48.066;14.124;2023-09-12T08:59:28;96446.66;;;22.49;62.54
49044;BME280;34860;48.066;14.124;2023-09-12T09:02:17;96446.88;;;22.57;62.75
49044;BME280;34860;48.066;14.124;2023-09-12T09:05:07;96441.69;;;22.61;62.45
49044;BME280;34860;48.066;14.124;2023-09-12T09:07:57;96443.19;;;22.67;62.40
49044;BME280;34860;48.066;14.124;2023-09-12T09:10:54;96443.16;;;22.73;62.48
49044;BME280;34860;48.066;14.124;2023-09-12T09:13:42;96448.25;;;22.80;62.42
49044;BME280;34860;48.066;14.124;2023-09-12T09:16:31;96441.78;;;22.85;62.37
49044;BME280;34860;48.066;14.124;2023-09-12T09:19:20;96439.69;;;22.92;62.34
49044;BME280;34860;48.066;14.124;2023-09-12T09:22:09;96439.09;;;22.99;62.26
49044;BME280;34860;48.066;14.124;2023-09-12T09:25:09;96442.94;;;23.07;62.16
49044;BME280;34860;48.066;14.124;2023-09-12T09:27:58;96449.31;;;23.13;62.09
49044;BME280;34860;48.066;14.124;2023-09-12T09:30:47;96448.00;;;23.20;62.10
49044;BME280;34860;48.066;14.124;2023-09-12T09:33:39;96438.16;;;23.27;62.20
49044;BME280;34860;48.066;14.124;2023-09-12T09:36:28;96443.47;;;23.36;62.19
49044;BME280;34860;48.066;14.124;2023-09-12T09:39:20;96437.44;;;23.45;62.21
49044;BME280;34860;48.066;14.124;2023-09-12T09:42:10;96427.06;;;23.53;61.88
49044;BME280;34860;48.066;14.124;2023-09-12T09:44:58;96428.78;;;23.62;62.05
49044;BME280;34860;48.066;14.124;2023-09-12T09:47:49;96419.91;;;23.71;61.87
49044;BME280;34860;48.066;14.124;2023-09-12T09:50:37;96424.22;;;23.78;61.66
49044;BME280;34860;48.066;14.124;2023-09-12T09:53:26;96426.72;;;23.87;61.78
49044;BME280;34860;48.066;14.124;2023-09-12T09:56:15;96428.44;;;23.96;61.62
49044;BME280;34860;48.066;14.124;2023-09-12T09:59:03;96426.28;;;24.02;61.76
49044;BME280;34860;48.066;14.124;2023-09-12T10:01:56;96417.94;;;24.10;61.65
49044;BME280;34860;48.066;14.124;2023-09-12T10:04:44;96427.38;;;24.18;61.87
49044;BME280;34860;48.066;14.124;2023-09-12T10:07:33;96421.88;;;24.26;61.48
49044;BME280;34860;48.066;14.124;2023-09-12T10:10:24;96428.69;;;24.36;61.28
49044;BME280;34860;48.066;14.124;2023-09-12T10:13:16;96420.34;;;24.44;61.49
49044;BME280;34860;48.066;14.124;2023-09-12T10:16:06;96412.72;;;24.52;61.34
49044;BME280;34860;48.066;14.124;2023-09-12T10:18:58;96415.00;;;24.59;61.48
49044;BME280;34860;48.066;14.124;2023-09-12T10:21:49;96409.69;;;24.69;61.40
49044;BME280;34860;48.066;14.124;2023-09-12T10:24:39;96416.28;;;24.77;60.87
49044;BME280;34860;48.066;14.124;2023-09-12T10:27:27;96413.91;;;24.81;61.27
49044;BME280;34860;48.066;14.124;2023-09-12T10:30:17;96418.19;;;24.88;61.04
49044;BME280;34860;48.066;14.124;2023-09-12T10:33:05;96412.16;;;24.92;60.81
49044;BME280;34860;48.066;14.124;2023-09-12T10:35:54;96413.63;;;24.98;60.74
49044;BME280;34860;48.066;14.124;2023-09-12T10:38:44;96414.53;;;25.07;60.68
49044;BME280;34860;48.066;14.124;2023-09-12T10:41:33;96409.81;;;25.09;60.64
49044;BME280;34860;48.066;14.124;2023-09-12T10:44:25;96415.97;;;25.13;60.77
49044;BME280;34860;48.066;14.124;2023-09-12T10:47:15;96414.56;;;25.20;60.66
49044;BME280;34860;48.066;14.124;2023-09-12T10:50:03;96415.78;;;25.25;60.47
49044;BME280;34860;48.066;14.124;2023-09-12T10:52:51;96416.25;;;25.29;60.56
49044;BME280;34860;48.066;14.124;2023-09-12T10:55:40;96419.00;;;25.34;60.45
49044;BME280;34860;48.066;14.124;2023-09-12T10:58:28;96413.97;;;25.41;60.81
49044;BME280;34860;48.066;14.124;2023-09-12T11:01:22;96407.63;;;25.48;60.52
49044;BME280;34860;48.066;14.124;2023-09-12T11:04:33;96411.16;;;25.54;60.59
49044;BME280;34860;48.066;14.124;2023-09-12T11:07:44;96402.81;;;25.56;60.11
49044;BME280;34860;48.066;14.124;2023-09-12T11:10:32;96414.88;;;25.62;60.48
49044;BME280;34860;48.066;14.124;2023-09-12T11:13:20;96411.94;;;25.68;60.23
49044;BME280;34860;48.066;14.124;2023-09-12T11:16:11;96399.66;;;25.73;60.27
49044;BME280;34860;48.066;14.124;2023-09-12T11:19:14;96406.56;;;25.78;60.46
49044;BME280;34860;48.066;14.124;2023-09-12T11:22:21;96398.25;;;25.80;60.16
49044;BME280;34860;48.066;14.124;2023-09-12T11:25:18;96400.78;;;25.83;60.06
49044;BME280;34860;48.066;14.124;2023-09-12T11:28:06;96404.06;;;25.87;60.29
49044;BME280;34860;48.066;14.124;2023-09-12T11:30:55;96389.72;;;25.93;60.16
49044;BME280;34860;48.066;14.124;2023-09-12T11:33:45;96404.41;;;25.97;60.13
49044;BME280;34860;48.066;14.124;2023-09-12T11:36:39;96399.91;;;26.02;59.90
49044;BME280;34860;48.066;14.124;2023-09-12T11:39:31;96394.88;;;26.08;60.02
49044;BME280;34860;48.066;14.124;2023-09-12T11:42:20;96401.75;;;26.13;59.79
49044;BME280;34860;48.066;14.124;2023-09-12T11:45:12;96399.66;;;26.13;60.26
49044;BME280;34860;48.066;14.124;2023-09-12T11:48:02;96391.56;;;26.17;60.04
49044;BME280;34860;48.066;14.124;2023-09-12T11:50:52;96391.22;;;26.21;60.12
49044;BME280;34860;48.066;14.124;2023-09-12T11:53:41;96388.81;;;26.25;59.75
49044;BME280;34860;48.066;14.124;2023-09-12T11:56:30;96388.13;;;26.32;59.55
49044;BME280;34860;48.066;14.124;2023-09-12T11:59:20;96388.91;;;26.33;59.64
49044;BME280;34860;48.066;14.124;2023-09-12T12:02:09;96389.34;;;26.37;59.68
49044;BME280;34860;48.066;14.124;2023-09-12T12:04:57;96381.78;;;26.39;59.60
49044;BME280;34860;48.066;14.124;2023-09-12T12:07:46;96381.97;;;26.41;59.65
49044;BME280;34860;48.066;14.124;2023-09-12T12:10:35;96388.13;;;26.45;59.73
49044;BME280;34860;48.066;14.124;2023-09-12T12:13:26;96376.94;;;26.48;59.13
49044;BME280;34860;48.066;14.124;2023-09-12T12:16:15;96383.59;;;26.50;59.57
49044;BME280;34860;48.066;14.124;2023-09-12T12:19:03;96387.97;;;26.51;59.17
49044;BME280;34860;48.066;14.124;2023-09-12T12:21:51;96378.88;;;26.53;59.37
49044;BME280;34860;48.066;14.124;2023-09-12T12:24:41;96379.31;;;26.57;59.14
49044;BME280;34860;48.066;14.124;2023-09-12T12:27:30;96379.31;;;26.57;59.07
49044;BME280;34860;48.066;14.124;2023-09-12T12:30:19;96368.66;;;26.57;59.11
49044;BME280;34860;48.066;14.124;2023-09-12T12:33:08;96375.13;;;26.58;58.98
49044;BME280;34860;48.066;14.124;2023-09-12T12:36:00;96375.34;;;26.60;59.09
49044;BME280;34860;48.066;14.124;2023-09-12T12:38:51;96369.31;;;26.63;59.14
49044;BME280;34860;48.066;14.124;2023-09-12T12:41:41;96370.06;;;26.64;58.91
49044;BME280;34860;48.066;14.124;2023-09-12T12:44:35;96360.75;;;26.63;58.83
49044;BME280;34860;48.066;14.124;2023-09-12T12:47:28;96355.06;;;26.63;59.08
49044;BME280;34860;48.066;14.124;2023-09-12T12:53:37;96365.69;;;26.63;59.24
49044;BME280;34860;48.066;14.124;2023-09-12T12:56:29;96349.72;;;26.60;59.26
49044;BME280;34860;48.066;14.124;2023-09-12T12:59:18;96351.78;;;26.59;58.97
49044;BME280;34860;48.066;14.124;2023-09-12T13:02:06;96354.06;;;26.61;59.36
49044;BME280;34860;48.066;14.124;2023-09-12T13:04:56;96352.19;;;26.63;58.84
49044;BME280;34860;48.066;14.124;2023-09-12T13:07:45;96352.00;;;26.61;58.90
49044;BME280;34860;48.066;14.124;2023-09-12T13:10:34;96361.31;;;26.62;58.98
49044;BME280;34860;48.066;14.124;2023-09-12T13:13:23;96356.91;;;26.61;59.22
49044;BME280;34860;48.066;14.124;2023-09-12T13:16:13;96355.59;;;26.62;58.78
49044;BME280;34860;48.066;14.124;2023-09-12T13:19:03;96354.28;;;26.63;58.78
49044;BME280;34860;48.066;14.124;2023-09-12T13:21:53;96350.09;;;26.64;58.98
49044;BME280;34860;48.066;14.124;2023-09-12T13:24:42;96353.50;;;26.62;59.13
49044;BME280;34860;48.066;14.124;2023-09-12T13:27:33;96352.00;;;26.61;59.09
49044;BME280;34860;48.066;14.124;2023-09-12T13:30:22;96354.63;;;26.59;58.86
49044;BME280;34860;48.066;14.124;2023-09-12T13:33:11;96363.16;;;26.59;58.99
49044;BME280;34860;48.066;14.124;2023-09-12T13:36:01;96354.63;;;26.59;58.60
49044;BME280;34860;48.066;14.124;2023-09-12T13:38:51;96348.72;;;26.57;58.96
49044;BME280;34860;48.066;14.124;2023-09-12T13:41:39;96356.50;;;26.57;58.63
49044;BME280;34860;48.066;14.124;2023-09-12T13:44:28;96355.72;;;26.56;59.08
49044;BME280;34860;48.066;14.124;2023-09-12T13:47:16;96345.66;;;26.55;58.75
49044;BME280;34860;48.066;14.124;2023-09-12T13:50:09;96344.88;;;26.55;59.08
49044;BME280;34860;48.066;14.124;2023-09-12T13:52:58;96350.38;;;26.53;58.63
49044;BME280;34860;48.066;14.124;2023-09-12T13:55:52;96335.91;;;26.51;58.73
49044;BME280;34860;48.066;14.124;2023-09-12T13:58:40;96350.72;;;26.49;58.81
49044;BME280;34860;48.066;14.124;2023-09-12T14:01:30;96354.13;;;26.48;58.77
49044;BME280;34860;48.066;14.124;2023-09-12T14:04:20;96344.59;;;26.45;58.92
49044;BME280;34860;48.066;14.124;2023-09-12T14:07:09;96352.19;;;26.42;59.11
49044;BME280;34860;48.066;14.124;2023-09-12T14:09:58;96352.28;;;26.37;58.85
49044;BME280;34860;48.066;14.124;2023-09-12T14:12:49;96349.78;;;26.33;59.06
49044;BME280;34860;48.066;14.124;2023-09-12T14:15:38;96340.81;;;26.29;59.02
49044;BME280;34860;48.066;14.124;2023-09-12T14:18:27;96356.69;;;26.24;59.25
49044;BME280;34860;48.066;14.124;2023-09-12T14:21:16;96350.59;;;26.20;59.15
49044;BME280;34860;48.066;14.124;2023-09-12T14:24:05;96342.94;;;26.15;59.28
49044;BME280;34860;48.066;14.124;2023-09-12T14:26:55;96351.03;;;26.11;59.19
49044;BME280;34860;48.066;14.124;2023-09-12T14:29:46;96340.00;;;26.07;59.37
49044;BME280;34860;48.066;14.124;2023-09-12T14:32:37;96351.94;;;26.06;59.35
49044;BME280;34860;48.066;14.124;2023-09-12T14:35:26;96341.66;;;26.03;59.11
49044;BME280;34860;48.066;14.124;2023-09-12T14:38:15;96346.56;;;26.02;59.18
49044;BME280;34860;48.066;14.124;2023-09-12T14:41:04;96343.16;;;26.04;59.07
49044;BME280;34860;48.066;14.124;2023-09-12T14:43:53;96343.72;;;26.02;59.40
49044;BME280;34860;48.066;14.124;2023-09-12T14:46:43;96335.16;;;26.02;59.26
49044;BME280;34860;48.066;14.124;2023-09-12T14:49:32;96335.41;;;26.04;59.17
49044;BME280;34860;48.066;14.124;2023-09-12T14:52:27;96330.47;;;26.05;59.11